createdAt,value
2022-11-28T00:01:35.814Z,14.63
2022-11-28T00:04:04.555Z,13.00
2022-11-28T00:06:33.031Z,14.57
2022-11-28T00:09:01.763Z,10.10
2022-11-28T00:11:31.533Z,12.00
2022-11-28T00:13:59.812Z,13.97
2022-11-28T00:16:28.292Z,11.90
2022-11-28T00:18:56.821Z,9.90
2022-11-28T00:21:25.158Z,11.63
2022-11-28T00:23:53.858Z,12.67
2022-11-28T00:26:22.923Z,10.43
2022-11-28T00:28:52.733Z,12.33
2022-11-28T00:31:21.941Z,9.30
2022-11-28T00:33:50.431Z,15.00
2022-11-28T00:36:18.937Z,11.33
2022-11-28T00:38:47.447Z,17.03
2022-11-28T00:41:16.167Z,16.97
2022-11-28T00:43:44.731Z,17.00
2022-11-28T00:46:14.871Z,15.10
2022-11-28T00:48:44.250Z,19.17
2022-11-28T00:51:13.364Z,19.93
2022-11-28T00:53:42.839Z,16.93
2022-11-28T00:56:11.408Z,19.97
2022-11-28T00:58:39.836Z,23.43
2022-11-28T01:01:11.635Z,32.57
2022-11-28T01:03:42.010Z,34.80
2022-11-28T01:06:10.568Z,29.10
2022-11-28T01:08:39.834Z,30.00
2022-11-28T01:11:12.973Z,24.47
2022-11-28T01:13:41.352Z,30.53
2022-11-28T01:16:09.890Z,31.43
2022-11-28T01:18:38.326Z,28.13
2022-11-28T01:21:09.120Z,26.27
2022-11-28T01:23:38.282Z,24.30
2022-11-28T01:26:07.608Z,20.43
2022-11-28T01:28:35.943Z,21.37
2022-11-28T01:31:05.682Z,21.20
2022-11-28T01:33:34.206Z,22.97
2022-11-28T01:36:02.647Z,31.17
2022-11-28T01:38:32.674Z,22.80
2022-11-28T01:41:01.006Z,21.63
2022-11-28T01:43:29.399Z,19.47
2022-11-28T01:45:57.953Z,19.27
2022-11-28T01:48:27.202Z,20.77
2022-11-28T01:50:56.809Z,21.90
2022-11-28T01:53:25.149Z,22.37
2022-11-28T01:55:57.369Z,20.13
2022-11-28T01:58:25.894Z,20.87
2022-11-28T02:00:54.449Z,21.20
2022-11-28T02:03:23.904Z,21.20
2022-11-28T02:05:52.440Z,20.37
2022-11-28T02:08:21.174Z,20.50
2022-11-28T02:11:00.538Z,20.43
2022-11-28T02:13:31.596Z,17.97
2022-11-28T02:16:05.073Z,22.27
2022-11-28T02:18:38.235Z,19.00
2022-11-28T02:21:14.014Z,20.60
2022-11-28T02:23:48.717Z,17.90
2022-11-28T02:26:42.092Z,22.53
2022-11-28T02:29:25.391Z,22.70
2022-11-28T02:32:08.763Z,19.80
2022-11-28T02:34:45.615Z,18.70
2022-11-28T02:37:18.045Z,18.50
2022-11-28T02:39:47.007Z,17.10
2022-11-28T02:42:17.163Z,18.87
2022-11-28T02:44:46.522Z,15.50
2022-11-28T02:47:16.080Z,19.27
2022-11-28T02:49:46.304Z,17.60
2022-11-28T02:52:15.267Z,14.13
2022-11-28T02:54:44.060Z,15.53
2022-11-28T02:57:12.593Z,13.00
2022-11-28T02:59:48.253Z,13.20
2022-11-28T03:02:18.586Z,15.07
2022-11-28T03:04:49.966Z,15.10
2022-11-28T03:07:20.996Z,15.63
2022-11-28T03:09:53.304Z,16.40
2022-11-28T03:12:22.758Z,17.40
2022-11-28T03:14:52.232Z,17.23
2022-11-28T03:17:22.019Z,12.70
2022-11-28T03:19:53.796Z,12.83
2022-11-28T03:22:23.335Z,9.47
2022-11-28T03:24:52.805Z,11.17
2022-11-28T03:27:23.158Z,13.60
2022-11-28T03:29:51.656Z,12.43
2022-11-28T03:32:20.832Z,15.43
2022-11-28T03:34:49.710Z,10.80
2022-11-28T03:37:20.380Z,11.70
2022-11-28T03:39:51.690Z,12.00
2022-11-28T03:42:21.573Z,9.57
2022-11-28T03:44:50.529Z,9.13
2022-11-28T03:47:19.516Z,11.40
2022-11-28T03:49:49.689Z,9.53
2022-11-28T03:52:20.657Z,11.87
2022-11-28T03:54:51.053Z,6.47
2022-11-28T03:57:20.242Z,6.77
2022-11-28T03:59:48.936Z,9.40
2022-11-28T04:02:17.764Z,7.00
2022-11-28T04:04:49.037Z,8.63
2022-11-28T04:07:20.553Z,7.03
2022-11-28T04:09:49.624Z,6.77
2022-11-28T04:12:19.658Z,7.97
2022-11-28T04:14:48.335Z,8.97
2022-11-28T04:17:18.332Z,8.47
2022-11-28T04:19:47.540Z,5.50
2022-11-28T04:22:16.630Z,6.10
2022-11-28T04:24:47.834Z,7.80
2022-11-28T04:27:17.216Z,5.87
2022-11-28T04:29:46.483Z,5.13
2022-11-28T04:32:14.774Z,6.20
2022-11-28T04:34:44.236Z,7.50
2022-11-28T04:37:14.364Z,5.30
2022-11-28T04:39:43.409Z,4.90
2022-11-28T04:42:13.885Z,3.80
2022-11-28T04:44:43.512Z,4.13
2022-11-28T04:47:12.184Z,4.73
2022-11-28T04:49:40.543Z,6.20
2022-11-28T04:52:09.821Z,4.73
2022-11-28T04:54:40.228Z,5.70
2022-11-28T04:57:11.542Z,4.33
2022-11-28T04:59:41.309Z,4.87
2022-11-28T05:02:09.775Z,4.73
2022-11-28T05:04:38.409Z,3.10
2022-11-28T05:07:07.223Z,5.60
2022-11-28T05:09:35.664Z,2.30
2022-11-28T05:12:04.435Z,3.93
2022-11-28T05:14:32.789Z,3.63
2022-11-28T05:17:02.582Z,4.07
2022-11-28T05:19:30.943Z,3.77
2022-11-28T05:21:59.273Z,2.90
2022-11-28T05:24:32.082Z,3.37
2022-11-28T05:27:00.964Z,4.33
2022-11-28T05:29:29.817Z,3.57
2022-11-28T05:31:58.199Z,3.10
2022-11-28T05:34:28.017Z,3.47
2022-11-28T05:36:56.446Z,3.90
2022-11-28T05:39:25.823Z,1.97
2022-11-28T05:41:54.235Z,1.83
2022-11-28T05:44:26.707Z,4.00
2022-11-28T05:46:55.485Z,5.10
2022-11-28T05:49:25.579Z,2.80
2022-11-28T05:51:55.240Z,2.37
2022-11-28T05:54:23.834Z,2.50
2022-11-28T05:56:52.163Z,3.33
2022-11-28T05:59:20.503Z,2.90
2022-11-28T06:01:48.931Z,2.50
2022-11-28T06:04:17.629Z,2.10
2022-11-28T06:06:46.243Z,4.43
2022-11-28T06:09:16.136Z,3.57
2022-11-28T06:11:45.451Z,3.03
2022-11-28T06:14:13.740Z,2.70
2022-11-28T06:16:42.982Z,2.97
2022-11-28T06:19:12.773Z,3.20
2022-11-28T06:21:41.867Z,1.50
2022-11-28T06:24:11.521Z,2.30
2022-11-28T06:26:41.282Z,1.70
2022-11-28T06:29:09.924Z,2.27
2022-11-28T06:31:38.576Z,1.37
2022-11-28T06:34:07.141Z,2.03
2022-11-28T06:36:35.840Z,1.63
2022-11-28T06:39:04.506Z,2.73
2022-11-28T06:41:32.914Z,1.67
2022-11-28T06:44:02.946Z,2.07
2022-11-28T06:46:31.393Z,2.50
2022-11-28T06:48:59.739Z,2.53
2022-11-28T06:51:28.750Z,1.97
2022-11-28T06:53:57.254Z,1.60
2022-11-28T06:56:26.073Z,2.10
2022-11-28T06:58:58.186Z,2.50
2022-11-28T07:01:28.482Z,1.77
2022-11-28T07:03:56.906Z,1.60
2022-11-28T07:06:25.670Z,4.77
2022-11-28T07:08:54.255Z,2.13
2022-11-28T07:11:23.487Z,1.50
2022-11-28T07:13:52.879Z,2.93
2022-11-28T07:16:21.759Z,2.83
2022-11-28T07:18:51.706Z,1.53
2022-11-28T07:21:20.207Z,1.27
2022-11-28T07:23:48.964Z,1.83
2022-11-28T07:26:17.706Z,2.13
2022-11-28T07:28:46.246Z,1.50
2022-11-28T07:31:15.419Z,3.57
2022-11-28T07:33:44.357Z,1.40
2022-11-28T07:36:15.266Z,1.40
2022-11-28T07:38:43.691Z,1.77
2022-11-28T07:41:13.226Z,3.00
2022-11-28T07:43:42.976Z,1.63
2022-11-28T07:46:11.875Z,1.93
2022-11-28T07:48:40.431Z,2.27
2022-11-28T07:51:08.954Z,2.00
2022-11-28T07:53:38.903Z,2.13
2022-11-28T07:56:08.012Z,3.07
2022-11-28T07:58:36.640Z,2.00
2022-11-28T08:01:10.824Z,1.90
2022-11-28T08:03:39.250Z,1.67
2022-11-28T08:06:07.779Z,1.87
2022-11-28T08:08:36.314Z,2.07
2022-11-28T08:11:06.595Z,1.57
2022-11-28T08:13:34.880Z,2.33
2022-11-28T08:16:05.133Z,2.70
2022-11-28T08:18:33.513Z,1.97
2022-11-28T08:21:06.004Z,1.67
2022-11-28T08:23:35.251Z,2.30
2022-11-28T08:26:03.831Z,2.00
2022-11-28T08:28:34.002Z,3.07
2022-11-28T08:31:04.489Z,3.23
2022-11-28T08:33:33.153Z,1.73
2022-11-28T08:36:01.638Z,1.57
2022-11-28T08:38:29.980Z,2.53
2022-11-28T08:41:02.865Z,2.93
2022-11-28T08:43:31.320Z,2.43
2022-11-28T08:46:01.613Z,3.50
2022-11-28T08:48:30.602Z,1.77
2022-11-28T08:50:58.946Z,4.13
2022-11-28T08:53:27.365Z,2.17
2022-11-28T08:55:55.814Z,5.50
2022-11-28T08:58:24.125Z,2.17
2022-11-28T09:00:52.732Z,1.70
2022-11-28T09:03:22.921Z,2.37
2022-11-28T09:05:51.607Z,2.37
2022-11-28T09:08:20.428Z,2.83
2022-11-28T09:10:49.065Z,1.60
2022-11-28T09:13:17.424Z,1.77
2022-11-28T09:15:49.042Z,2.43
2022-11-28T09:18:19.811Z,3.17
2022-11-28T09:20:49.738Z,2.50
2022-11-28T09:23:18.429Z,3.87
2022-11-28T09:25:46.937Z,2.20
2022-11-28T09:28:15.458Z,3.67
2022-11-28T09:30:43.877Z,3.90
2022-11-28T09:33:13.784Z,1.70
2022-11-28T09:35:42.234Z,1.47
2022-11-28T09:38:12.098Z,2.67
2022-11-28T09:40:41.367Z,1.03
2022-11-28T09:43:12.764Z,1.73
2022-11-28T09:45:41.418Z,2.70
2022-11-28T09:48:11.693Z,3.27
2022-11-28T09:50:40.340Z,1.20
2022-11-28T09:53:11.734Z,0.83
2022-11-28T09:55:41.759Z,2.23
2022-11-28T09:58:12.543Z,1.70
2022-11-28T10:00:41.553Z,1.47
2022-11-28T10:03:14.025Z,2.17
2022-11-28T10:05:44.070Z,1.80
2022-11-28T10:08:16.174Z,2.47
2022-11-28T10:10:49.150Z,1.93
2022-11-28T10:13:18.471Z,1.40
2022-11-28T10:15:48.396Z,2.10
2022-11-28T10:18:23.745Z,2.27
2022-11-28T10:20:53.618Z,1.33
2022-11-28T10:23:24.384Z,1.23
2022-11-28T10:25:55.088Z,1.37
2022-11-28T10:28:24.490Z,2.63
2022-11-28T10:30:55.332Z,1.43
2022-11-28T10:33:25.329Z,1.93
2022-11-28T10:35:55.302Z,1.10
2022-11-28T10:38:26.105Z,1.57
2022-11-28T10:40:57.862Z,1.13
2022-11-28T10:43:31.301Z,1.40
2022-11-28T10:46:01.849Z,2.43
2022-11-28T10:48:41.509Z,2.70
2022-11-28T10:51:19.777Z,4.97
2022-11-28T10:53:49.407Z,2.33
2022-11-28T10:56:22.941Z,1.97
2022-11-28T10:58:53.297Z,2.03
2022-11-28T11:01:21.924Z,2.43
2022-11-28T11:03:50.541Z,1.67
2022-11-28T11:06:19.588Z,1.87
2022-11-28T11:08:48.444Z,3.27
2022-11-28T11:11:23.638Z,0.90
2022-11-28T11:13:59.170Z,1.30
2022-11-28T11:16:27.617Z,1.77
2022-11-28T11:18:56.290Z,2.23
2022-11-28T11:21:25.251Z,3.27
2022-11-28T11:24:12.141Z,3.10
2022-11-28T11:26:43.537Z,2.10
2022-11-28T11:29:21.834Z,2.03
2022-11-28T11:31:51.928Z,3.30
2022-11-28T11:34:20.854Z,1.43
2022-11-28T11:36:50.006Z,3.30
2022-11-28T11:39:21.331Z,2.07
2022-11-28T11:41:51.570Z,3.13
2022-11-28T11:44:29.139Z,1.43
2022-11-28T11:46:58.269Z,3.07
2022-11-28T11:49:30.441Z,1.50
2022-11-28T11:51:59.238Z,2.90
2022-11-28T11:54:27.646Z,1.97
2022-11-28T11:57:24.919Z,2.67
2022-11-28T11:59:46.788Z,1.47
2022-11-28T12:02:17.677Z,3.47
2022-11-28T12:04:51.121Z,1.70
2022-11-28T12:07:23.803Z,1.20
2022-11-28T12:09:54.469Z,1.20
2022-11-28T12:12:24.903Z,3.30
2022-11-28T12:14:53.762Z,1.63
2022-11-28T12:20:22.075Z,1.27
2022-11-28T12:22:51.489Z,2.10
2022-11-28T12:25:22.092Z,2.47
2022-11-28T12:27:57.336Z,2.27
2022-11-28T12:30:27.579Z,2.40
2022-11-28T12:32:58.900Z,1.37
2022-11-28T12:35:29.801Z,2.13
2022-11-28T12:38:16.059Z,2.03
2022-11-28T12:40:47.515Z,1.37
2022-11-28T12:43:21.193Z,1.73
2022-11-28T12:45:50.501Z,1.30
2022-11-28T12:48:25.054Z,2.07
2022-11-28T12:50:54.640Z,1.83
2022-11-28T12:53:29.903Z,2.97
2022-11-28T12:56:00.424Z,3.03
2022-11-28T12:58:31.936Z,2.20
2022-11-28T13:01:02.248Z,2.47
2022-11-28T13:03:34.845Z,2.47
2022-11-28T13:06:06.014Z,1.40
2022-11-28T13:08:41.936Z,2.17
2022-11-28T13:11:15.911Z,3.27
2022-11-28T13:13:46.823Z,1.77
2022-11-28T13:16:20.780Z,2.57
2022-11-28T13:18:54.038Z,1.67
2022-11-28T13:21:25.472Z,2.20
2022-11-28T13:23:55.349Z,4.17
2022-11-28T13:26:28.910Z,1.03
2022-11-28T13:29:00.056Z,1.57
2022-11-28T13:31:29.226Z,1.43
2022-11-28T13:33:57.789Z,2.33
2022-11-28T13:39:20.454Z,4.80
2022-11-28T13:42:21.242Z,1.40
2022-11-28T13:44:43.680Z,1.43
2022-11-28T13:47:14.848Z,3.20
2022-11-28T13:49:43.284Z,1.40
2022-11-28T13:52:31.920Z,1.90
2022-11-28T13:55:00.290Z,1.90
2022-11-28T13:57:29.313Z,3.13
2022-11-28T14:00:01.424Z,2.33
2022-11-28T14:02:35.695Z,3.17
2022-11-28T14:05:04.552Z,1.53
2022-11-28T14:07:33.867Z,2.13
2022-11-28T14:10:09.791Z,1.50
2022-11-28T14:12:38.712Z,2.37
2022-11-28T14:15:12.514Z,1.13
2022-11-28T14:17:48.308Z,2.37
2022-11-28T14:20:20.633Z,1.47
2022-11-28T14:22:52.589Z,1.47
2022-11-28T14:25:21.598Z,1.60
2022-11-28T14:27:53.677Z,1.57
2022-11-28T14:30:27.722Z,3.43
2022-11-28T14:32:57.371Z,0.93
2022-11-28T14:35:44.618Z,2.50
2022-11-28T14:38:27.917Z,1.67
2022-11-28T14:41:05.531Z,5.20
2022-11-28T14:43:34.639Z,1.90
2022-11-28T14:46:33.581Z,0.87
2022-11-28T14:49:22.690Z,1.20
2022-11-28T14:52:30.810Z,1.17
2022-11-28T14:54:54.910Z,1.43
2022-11-28T14:57:27.438Z,1.60
2022-11-28T14:59:56.230Z,2.63
2022-11-28T15:02:35.894Z,1.40
2022-11-28T15:05:12.371Z,1.27
2022-11-28T15:07:43.449Z,1.27
2022-11-28T15:10:12.214Z,1.37
2022-11-28T15:12:42.882Z,1.53
2022-11-28T15:15:12.796Z,1.30
2022-11-28T15:17:41.382Z,1.47
2022-11-28T15:20:10.830Z,0.90
2022-11-28T15:22:41.886Z,3.73
2022-11-28T15:25:19.353Z,1.67
2022-11-28T15:27:47.906Z,1.00
2022-11-28T15:30:16.859Z,0.80
2022-11-28T15:32:45.397Z,2.80
2022-11-28T15:35:15.120Z,3.60
2022-11-28T15:37:49.735Z,1.67
2022-11-28T15:40:21.161Z,1.57
2022-11-28T15:42:50.084Z,2.10
2022-11-28T15:45:20.923Z,3.17
2022-11-28T15:47:49.654Z,6.10
2022-11-28T15:50:19.543Z,1.20
2022-11-28T15:52:59.817Z,1.70
2022-11-28T15:55:29.649Z,0.97
2022-11-28T15:58:11.771Z,2.23
2022-11-28T16:00:40.454Z,1.37
2022-11-28T16:03:09.017Z,1.50
2022-11-28T16:05:37.458Z,0.97
2022-11-28T16:08:13.233Z,1.57
2022-11-28T16:10:42.127Z,1.00
2022-11-28T16:13:11.726Z,2.00
2022-11-28T16:15:40.031Z,1.07
2022-11-28T16:18:08.705Z,0.90
2022-11-28T16:20:37.584Z,0.70
2022-11-28T16:23:10.763Z,1.27
2022-11-28T16:25:39.098Z,0.70
2022-11-28T16:28:08.327Z,3.10
2022-11-28T16:30:37.825Z,3.67
2022-11-28T16:33:06.628Z,1.57
2022-11-28T16:35:37.927Z,1.00
2022-11-28T16:38:07.951Z,1.87
2022-11-28T16:40:38.094Z,1.07
2022-11-28T16:43:08.092Z,1.57
2022-11-28T16:45:36.586Z,2.30
2022-11-28T16:48:08.880Z,0.70
2022-11-28T16:50:37.377Z,2.13
2022-11-28T16:53:06.180Z,2.30
2022-11-28T16:55:44.411Z,0.60
2022-11-28T16:58:17.291Z,1.30
2022-11-28T17:00:47.870Z,0.87
2022-11-28T17:03:34.688Z,1.67
2022-11-28T17:06:03.157Z,0.93
2022-11-28T17:08:31.702Z,1.07
2022-11-28T17:11:01.421Z,1.40
2022-11-28T17:13:31.352Z,2.37
2022-11-28T17:16:00.396Z,1.30
2022-11-28T17:18:28.812Z,0.80
2022-11-28T17:20:57.324Z,1.27
2022-11-28T17:23:26.319Z,2.50
2022-11-28T17:25:54.705Z,0.80
2022-11-28T17:28:28.999Z,1.87
2022-11-28T17:30:58.609Z,2.57
2022-11-28T17:33:28.111Z,1.60
2022-11-28T17:35:56.575Z,2.67
2022-11-28T17:38:24.904Z,8.03
2022-11-28T17:40:53.306Z,1.47
2022-11-28T17:43:21.923Z,0.70
2022-11-28T17:45:52.476Z,2.63
2022-11-28T17:48:20.849Z,3.47
2022-11-28T17:50:49.529Z,1.43
2022-11-28T17:53:19.109Z,1.00
2022-11-28T17:55:49.027Z,1.50
2022-11-28T17:58:18.686Z,1.33
2022-11-28T18:00:46.988Z,1.47
2022-11-28T18:03:16.771Z,2.63
2022-11-28T18:05:45.862Z,2.13
2022-11-28T18:08:19.191Z,0.93
2022-11-28T18:10:50.144Z,2.30
2022-11-28T18:13:18.503Z,0.90
2022-11-28T18:15:50.436Z,6.10
2022-11-28T18:18:20.433Z,1.17
2022-11-28T18:20:48.840Z,1.27
2022-11-28T18:23:17.234Z,1.47
2022-11-28T18:25:46.121Z,1.43
2022-11-28T18:28:18.843Z,1.40
2022-11-28T18:30:48.164Z,1.17
2022-11-28T18:33:16.491Z,1.43
2022-11-28T18:35:46.217Z,1.97
2022-11-28T18:38:14.808Z,3.10
2022-11-28T18:40:43.215Z,1.97
2022-11-28T18:43:11.556Z,2.87
2022-11-28T18:45:40.043Z,3.07
2022-11-28T18:48:08.649Z,1.87
2022-11-28T18:50:36.969Z,2.63
2022-11-28T18:53:06.863Z,2.20
2022-11-28T18:55:35.208Z,2.03
2022-11-28T18:58:03.594Z,2.67
2022-11-28T19:00:32.116Z,2.40
2022-11-28T19:03:00.852Z,3.13
2022-11-28T19:05:29.189Z,1.77
2022-11-28T19:07:58.417Z,3.33
2022-11-28T19:10:28.188Z,4.63
2022-11-28T19:12:56.832Z,2.30
2022-11-28T19:15:25.774Z,3.10
2022-11-28T19:17:54.123Z,3.83
2022-11-28T19:20:22.647Z,7.37
2022-11-28T19:22:51.058Z,1.97
2022-11-28T19:25:19.399Z,2.93
2022-11-28T19:27:49.242Z,2.73
2022-11-28T19:30:18.280Z,3.27
2022-11-28T19:32:46.656Z,3.33
2022-11-28T19:35:15.176Z,4.30
2022-11-28T19:37:43.744Z,3.70
2022-11-28T19:40:12.644Z,4.17
2022-11-28T19:42:41.230Z,3.03
2022-11-28T19:45:12.326Z,3.20
2022-11-28T19:47:42.376Z,3.97
2022-11-28T19:50:11.296Z,2.23
2022-11-28T19:52:40.970Z,2.60
2022-11-28T19:55:09.935Z,5.87
2022-11-28T19:57:39.429Z,4.67
2022-11-28T20:00:08.677Z,4.87
2022-11-28T20:02:38.537Z,5.00
2022-11-28T20:05:07.707Z,3.23
2022-11-28T20:07:36.133Z,6.57
2022-11-28T20:10:07.196Z,4.20
2022-11-28T20:12:35.638Z,3.60
2022-11-28T20:15:04.565Z,7.73
2022-11-28T20:17:32.908Z,3.53
2022-11-28T20:20:02.921Z,3.73
2022-11-28T20:22:33.279Z,5.10
2022-11-28T20:25:01.922Z,3.60
2022-11-28T20:27:30.462Z,5.10
2022-11-28T20:29:59.068Z,5.50
2022-11-28T20:32:27.665Z,2.73
2022-11-28T20:34:56.386Z,4.53
2022-11-28T20:37:26.579Z,3.60
2022-11-28T20:39:57.356Z,4.63
2022-11-28T20:42:25.779Z,3.67
2022-11-28T20:44:54.348Z,3.53
2022-11-28T20:47:22.978Z,5.37
2022-11-28T20:49:51.283Z,4.23
2022-11-28T20:52:20.014Z,4.43
2022-11-28T20:54:49.973Z,5.67
2022-11-28T20:57:21.980Z,3.70
2022-11-28T20:59:52.527Z,3.50
2022-11-28T21:02:21.016Z,3.23
2022-11-28T21:04:49.484Z,2.77
2022-11-28T21:07:18.536Z,4.50
2022-11-28T21:09:48.062Z,3.30
2022-11-28T21:12:20.973Z,4.87
2022-11-28T21:14:49.963Z,5.87
2022-11-28T21:17:18.287Z,4.90
2022-11-28T21:19:46.857Z,4.20
2022-11-28T21:22:15.449Z,7.17
2022-11-28T21:24:45.129Z,3.27
2022-11-28T21:27:13.591Z,5.33
2022-11-28T21:29:44.241Z,3.73
2022-11-28T21:32:15.455Z,6.30
2022-11-28T21:34:44.117Z,3.97
2022-11-28T21:37:12.651Z,4.57
2022-11-28T21:39:41.595Z,4.67
2022-11-28T21:42:10.512Z,5.93
2022-11-28T21:44:39.783Z,4.10
2022-11-28T21:47:09.570Z,5.40
2022-11-28T21:49:39.023Z,6.37
2022-11-28T21:52:09.533Z,6.30
2022-11-28T21:54:38.153Z,7.80
2022-11-28T21:57:06.796Z,7.90
2022-11-28T21:59:35.309Z,7.07
2022-11-28T22:02:08.568Z,4.73
2022-11-28T22:04:41.713Z,4.97
2022-11-28T22:07:10.901Z,6.07
2022-11-28T22:09:39.204Z,5.23
2022-11-28T22:12:08.232Z,5.40
2022-11-28T22:14:37.041Z,8.27
2022-11-28T22:17:05.879Z,4.97
2022-11-28T22:19:42.472Z,4.30
2022-11-28T22:22:12.930Z,4.83
2022-11-28T22:24:41.886Z,5.20
2022-11-28T22:27:10.541Z,8.57
2022-11-28T22:29:38.929Z,7.87
2022-11-28T22:32:07.444Z,8.03
2022-11-28T22:34:39.934Z,6.27
2022-11-28T22:37:08.824Z,7.90
2022-11-28T22:39:38.940Z,6.30
2022-11-28T22:42:07.763Z,6.27
2022-11-28T22:44:36.213Z,4.20
2022-11-28T22:47:04.910Z,8.27
2022-11-28T22:49:33.639Z,7.60
2022-11-28T22:52:02.103Z,6.20
2022-11-28T22:54:30.606Z,6.20
2022-11-28T22:57:00.661Z,6.00
2022-11-28T22:59:29.726Z,6.80
2022-11-28T23:01:58.141Z,8.07
2022-11-28T23:04:26.593Z,6.40
2022-11-28T23:06:54.934Z,8.47
2022-11-28T23:09:23.288Z,11.80
2022-11-28T23:11:51.796Z,9.90
2022-11-28T23:14:21.566Z,9.60
2022-11-28T23:16:49.888Z,6.57
2022-11-28T23:19:33.011Z,8.63
2022-11-28T23:22:01.410Z,8.73
2022-11-28T23:24:29.715Z,10.57
2022-11-28T23:26:58.715Z,10.53
2022-11-28T23:29:28.545Z,13.43
2022-11-28T23:31:57.043Z,9.47
2022-11-28T23:34:25.460Z,12.07
2022-11-28T23:36:53.792Z,13.43
2022-11-28T23:39:22.467Z,13.50
2022-11-28T23:41:50.806Z,12.53
2022-11-28T23:44:19.679Z,14.50
2022-11-28T23:46:49.505Z,18.20
2022-11-28T23:49:17.848Z,20.40
2022-11-28T23:51:46.375Z,22.80
2022-11-28T23:54:14.810Z,23.13
2022-11-28T23:56:43.297Z,22.33
2022-11-28T23:59:12.462Z,21.50
